Rucphen, Netherlands
Current Conditions -  °F | °C
As of 2:25 PM on Tuesday 21 Oct 2014 (Local Time) from EHWO Reporting Station
Rain Showers Rain Showers  
Wind Chill: 54°   Ceiling: 1400
Heat Index: 54°   Visibility: 4mi
Dew Point: 52°   Wind: 20mph
Humidity: 94%   Direction: 270°W
Pressure: 29.53"   Gusts: NA
Location:  51.53°N, 4.56°E
Report Text: EHWO 211225Z AUTO 27017KT 6000 -SHRA FEW011 BKN014 FEW015CB OVC017 12/11 Q1000 RETSRA GRN
Loading
Personal Weather Stations






























Interactive Weather Map
Tropical Storm Tracking
New forecast layout! Learn more

10-Day Weather Forecast

Advertisements
Track Severe Weather on mobile